sensor_id;sensor_type;location;lat;lon;timestamp;pressure;altitude;pressure_sealevel;temperature;humidity
57086;BME280;42964;42.910;23.792;2022-07-06T00:02:31;97518.16;;;20.82;92.67
57086;BME280;42964;42.910;23.792;2022-07-06T00:07:30;97484.09;;;20.77;93.04
57086;BME280;42964;42.910;23.792;2022-07-06T00:12:29;97451.53;;;20.59;93.59
57086;BME280;42964;42.910;23.792;2022-07-06T00:17:28;97437.47;;;20.40;93.66
57086;BME280;42964;42.910;23.792;2022-07-06T00:22:27;97425.75;;;20.26;92.81
57086;BME280;42964;42.910;23.792;2022-07-06T00:27:26;97429.72;;;20.16;92.05
57086;BME280;42964;42.910;23.792;2022-07-06T00:32:24;97451.50;;;19.80;93.24
57086;BME280;42964;42.910;23.792;2022-07-06T00:37:25;97448.84;;;19.60;92.80
57086;BME280;42964;42.910;23.792;2022-07-06T00:42:24;97434.31;;;19.72;92.12
57086;BME280;42964;42.910;23.792;2022-07-06T00:47:23;97453.34;;;19.78;92.38
57086;BME280;42964;42.910;23.792;2022-07-06T00:52:22;97464.66;;;19.80;90.81
57086;BME280;42964;42.910;23.792;2022-07-06T00:57:21;97479.03;;;19.94;90.75
57086;BME280;42964;42.910;23.792;2022-07-06T01:02:20;97477.03;;;19.99;91.11
57086;BME280;42964;42.910;23.792;2022-07-06T01:07:21;97473.75;;;19.94;92.10
57086;BME280;42964;42.910;23.792;2022-07-06T01:12:20;97473.88;;;19.91;92.87
57086;BME280;42964;42.910;23.792;2022-07-06T01:17:20;97475.84;;;19.85;93.65
57086;BME280;42964;42.910;23.792;2022-07-06T01:22:19;97475.72;;;19.89;93.96
57086;BME280;42964;42.910;23.792;2022-07-06T01:27:18;97473.81;;;19.92;94.32
57086;BME280;42964;42.910;23.792;2022-07-06T01:32:17;97473.75;;;19.94;94.15
57086;BME280;42964;42.910;23.792;2022-07-06T01:37:16;97460.59;;;19.94;94.30
57086;BME280;42964;42.910;23.792;2022-07-06T01:42:15;97463.22;;;19.94;94.07
57086;BME280;42964;42.910;23.792;2022-07-06T01:47:14;97481.50;;;19.97;93.94
57086;BME280;42964;42.910;23.792;2022-07-06T01:52:13;97484.09;;;19.98;94.09
57086;BME280;42964;42.910;23.792;2022-07-06T01:57:12;97497.97;;;20.02;94.00
57086;BME280;42964;42.910;23.792;2022-07-06T02:02:11;97504.31;;;19.98;93.95
57086;BME280;42964;42.910;23.792;2022-07-06T02:07:10;97517.59;;;19.95;94.31
57086;BME280;42964;42.910;23.792;2022-07-06T02:12:09;97517.06;;;19.86;94.43
57086;BME280;42964;42.910;23.792;2022-07-06T02:17:08;97531.03;;;19.89;94.64
57086;BME280;42964;42.910;23.792;2022-07-06T02:22:07;97538.25;;;19.83;94.59
57086;BME280;42964;42.910;23.792;2022-07-06T02:27:06;97567.53;;;19.54;95.85
57086;BME280;42964;42.910;23.792;2022-07-06T02:32:05;97574.34;;;19.14;96.76
57086;BME280;42964;42.910;23.792;2022-07-06T02:37:04;97570.94;;;19.12;96.48
57086;BME280;42964;42.910;23.792;2022-07-06T02:42:03;97577.88;;;19.13;96.95
57086;BME280;42964;42.910;23.792;2022-07-06T02:47:02;97582.28;;;19.12;96.68
57086;BME280;42964;42.910;23.792;2022-07-06T02:52:01;97594.66;;;19.10;96.85
57086;BME280;42964;42.910;23.792;2022-07-06T02:57:00;97595.06;;;18.99;97.26
57086;BME280;42964;42.910;23.792;2022-07-06T03:01:59;97587.19;;;18.99;97.29
57086;BME280;42964;42.910;23.792;2022-07-06T03:06:58;97610.44;;;19.10;97.28
57086;BME280;42964;42.910;23.792;2022-07-06T03:11:57;97600.66;;;19.14;97.07
57086;BME280;42964;42.910;23.792;2022-07-06T03:16:57;97612.66;;;19.21;97.05
57086;BME280;42964;42.910;23.792;2022-07-06T03:21:56;97615.84;;;19.29;97.17
57086;BME280;42964;42.910;23.792;2022-07-06T03:26:55;97620.75;;;19.38;97.28
57086;BME280;42964;42.910;23.792;2022-07-06T03:31:54;97622.06;;;19.50;97.31
57086;BME280;42964;42.910;23.792;2022-07-06T03:36:54;97625.03;;;19.64;97.49
57086;BME280;42964;42.910;23.792;2022-07-06T03:41:53;97630.69;;;19.77;97.31
57086;BME280;42964;42.910;23.792;2022-07-06T03:46:52;97631.28;;;19.84;97.32
57086;BME280;42964;42.910;23.792;2022-07-06T03:51:54;97625.53;;;19.96;97.04
57086;BME280;42964;42.910;23.792;2022-07-06T03:56:53;97619.78;;;20.07;96.74
57086;BME280;42964;42.910;23.792;2022-07-06T04:01:52;97614.03;;;20.19;96.53
57086;BME280;42964;42.910;23.792;2022-07-06T04:06:51;97606.41;;;20.34;96.14
57086;BME280;42964;42.910;23.792;2022-07-06T04:11:50;97609.31;;;20.48;95.53
57086;BME280;42964;42.910;23.792;2022-07-06T04:16:49;97614.34;;;20.54;93.80
57086;BME280;42964;42.910;23.792;2022-07-06T04:21:48;97617.06;;;20.31;93.64
57086;BME280;42964;42.910;23.792;2022-07-06T04:26:47;97609.81;;;20.36;93.46
57086;BME280;42964;42.910;23.792;2022-07-06T04:31:46;97615.91;;;20.38;93.44
57086;BME280;42964;42.910;23.792;2022-07-06T04:36:45;97628.53;;;20.29;93.11
57086;BME280;42964;42.910;23.792;2022-07-06T04:41:44;97627.72;;;20.27;93.03
57086;BME280;42964;42.910;23.792;2022-07-06T04:46:43;97624.94;;;20.10;93.74
57086;BME280;42964;42.910;23.792;2022-07-06T04:51:42;97626.31;;;19.98;93.85
57086;BME280;42964;42.910;23.792;2022-07-06T04:56:41;97623.25;;;19.87;94.30
57086;BME280;42964;42.910;23.792;2022-07-06T05:01:40;97642.06;;;19.78;94.88
57086;BME280;42964;42.910;23.792;2022-07-06T05:06:39;97645.28;;;19.62;95.48
57086;BME280;42964;42.910;23.792;2022-07-06T05:11:39;97649.81;;;19.81;95.49
57086;BME280;42964;42.910;23.792;2022-07-06T05:16:38;97640.84;;;19.86;94.58
57086;BME280;42964;42.910;23.792;2022-07-06T05:21:36;97646.41;;;20.01;93.94
57086;BME280;42964;42.910;23.792;2022-07-06T05:26:35;97642.97;;;19.99;94.23
57086;BME280;42964;42.910;23.792;2022-07-06T05:31:34;97640.28;;;20.00;94.39
57086;BME280;42964;42.910;23.792;2022-07-06T05:36:33;97651.31;;;20.10;93.74
57086;BME280;42964;42.910;23.792;2022-07-06T05:41:32;97656.38;;;20.35;93.67
57086;BME280;42964;42.910;23.792;2022-07-06T05:46:31;97656.50;;;20.75;92.92
57086;BME280;42964;42.910;23.792;2022-07-06T05:51:31;97660.06;;;20.94;90.37
57086;BME280;42964;42.910;23.792;2022-07-06T05:56:30;97657.66;;;21.29;90.62
57086;BME280;42964;42.910;23.792;2022-07-06T06:01:29;97656.06;;;21.63;89.06
57086;BME280;42964;42.910;23.792;2022-07-06T06:06:28;97647.34;;;21.80;87.84
57086;BME280;42964;42.910;23.792;2022-07-06T06:11:29;97644.84;;;21.76;86.43
57086;BME280;42964;42.910;23.792;2022-07-06T06:16:28;97645.53;;;21.80;86.76
57086;BME280;42964;42.910;23.792;2022-07-06T06:21:27;97643.00;;;21.79;85.64
57086;BME280;42964;42.910;23.792;2022-07-06T06:26:26;97637.41;;;21.85;84.85
57086;BME280;42964;42.910;23.792;2022-07-06T06:31:25;97632.81;;;22.07;83.90
57086;BME280;42964;42.910;23.792;2022-07-06T06:36:24;97628.09;;;22.14;84.08
57086;BME280;42964;42.910;23.792;2022-07-06T06:41:23;97630.88;;;22.28;82.77
57086;BME280;42964;42.910;23.792;2022-07-06T06:46:22;97629.78;;;22.50;82.76
57086;BME280;42964;42.910;23.792;2022-07-06T06:51:21;97629.94;;;22.64;80.42
57086;BME280;42964;42.910;23.792;2022-07-06T06:56:20;97620.22;;;22.47;78.76
57086;BME280;42964;42.910;23.792;2022-07-06T07:01:19;97625.25;;;22.69;78.18
57086;BME280;42964;42.910;23.792;2022-07-06T07:06:18;97618.19;;;22.87;75.80
57086;BME280;42964;42.910;23.792;2022-07-06T07:11:17;97619.78;;;23.23;76.23
57086;BME280;42964;42.910;23.792;2022-07-06T07:16:16;97621.59;;;23.22;67.75
57086;BME280;42964;42.910;23.792;2022-07-06T07:21:15;97623.59;;;23.51;67.08
57086;BME280;42964;42.910;23.792;2022-07-06T07:26:14;97628.78;;;23.84;66.12
57086;BME280;42964;42.910;23.792;2022-07-06T07:31:13;97622.75;;;24.28;65.20
57086;BME280;42964;42.910;23.792;2022-07-06T07:36:12;97628.16;;;24.57;64.46
57086;BME280;42964;42.910;23.792;2022-07-06T07:41:11;97624.31;;;25.20;64.72
57086;BME280;42964;42.910;23.792;2022-07-06T07:46:12;97617.69;;;25.13;58.25
57086;BME280;42964;42.910;23.792;2022-07-06T07:51:11;97628.03;;;25.17;57.15
57086;BME280;42964;42.910;23.792;2022-07-06T07:56:11;97616.84;;;25.12;57.48
57086;BME280;42964;42.910;23.792;2022-07-06T08:01:10;97629.13;;;24.84;59.67
57086;BME280;42964;42.910;23.792;2022-07-06T08:06:09;97619.06;;;24.61;63.65
57086;BME280;42964;42.910;23.792;2022-07-06T08:11:08;97617.13;;;24.48;64.36
57086;BME280;42964;42.910;23.792;2022-07-06T08:16:08;97620.56;;;24.51;63.35
57086;BME280;42964;42.910;23.792;2022-07-06T08:21:08;97634.34;;;24.72;63.49
57086;BME280;42964;42.910;23.792;2022-07-06T08:26:07;97625.88;;;24.65;63.42
57086;BME280;42964;42.910;23.792;2022-07-06T08:31:06;97626.25;;;24.59;64.49
57086;BME280;42964;42.910;23.792;2022-07-06T08:36:06;97640.03;;;24.80;62.34
57086;BME280;42964;42.910;23.792;2022-07-06T08:41:05;97627.25;;;25.15;60.31
57086;BME280;42964;42.910;23.792;2022-07-06T08:46:06;97617.22;;;25.35;59.40
57086;BME280;42964;42.910;23.792;2022-07-06T08:51:06;97619.66;;;25.52;57.60
57086;BME280;42964;42.910;23.792;2022-07-06T08:56:05;97622.31;;;25.38;55.07
57086;BME280;42964;42.910;23.792;2022-07-06T09:01:04;97617.34;;;25.74;53.78
57086;BME280;42964;42.910;23.792;2022-07-06T09:06:04;97619.00;;;25.63;53.75
57086;BME280;42964;42.910;23.792;2022-07-06T09:11:04;97623.50;;;25.75;55.51
57086;BME280;42964;42.910;23.792;2022-07-06T09:16:11;97612.63;;;25.92;55.54
57086;BME280;42964;42.910;23.792;2022-07-06T09:21:11;97614.75;;;25.46;55.99
57086;BME280;42964;42.910;23.792;2022-07-06T09:26:10;97626.91;;;24.93;56.10
57086;BME280;42964;42.910;23.792;2022-07-06T09:31:10;97621.34;;;24.67;57.92
57086;BME280;42964;42.910;23.792;2022-07-06T09:36:09;97626.53;;;24.54;58.95
57086;BME280;42964;42.910;23.792;2022-07-06T09:41:08;97618.84;;;24.49;58.88
57086;BME280;42964;42.910;23.792;2022-07-06T09:46:07;97615.59;;;24.44;59.64
57086;BME280;42964;42.910;23.792;2022-07-06T09:51:07;97613.22;;;24.40;59.06
57086;BME280;42964;42.910;23.792;2022-07-06T09:56:06;97613.72;;;24.46;58.63
57086;BME280;42964;42.910;23.792;2022-07-06T10:01:05;97612.31;;;24.55;57.25
57086;BME280;42964;42.910;23.792;2022-07-06T10:06:04;97618.69;;;24.53;58.20
57086;BME280;42964;42.910;23.792;2022-07-06T10:11:04;97617.38;;;24.74;58.29
57086;BME280;42964;42.910;23.792;2022-07-06T10:16:05;97613.53;;;24.49;58.84
57086;BME280;42964;42.910;23.792;2022-07-06T10:21:04;97617.56;;;24.11;61.38
57086;BME280;42964;42.910;23.792;2022-07-06T10:26:04;97620.69;;;23.55;65.38
57086;BME280;42964;42.910;23.792;2022-07-06T10:31:04;97618.00;;;23.39;67.90
57086;BME280;42964;42.910;23.792;2022-07-06T10:36:03;97624.84;;;22.94;67.69
57086;BME280;42964;42.910;23.792;2022-07-06T10:41:07;97628.66;;;23.06;69.83
57086;BME280;42964;42.910;23.792;2022-07-06T10:46:09;97637.81;;;22.66;74.02
57086;BME280;42964;42.910;23.792;2022-07-06T10:51:29;97639.44;;;22.33;78.42
57086;BME280;42964;42.910;23.792;2022-07-06T10:56:42;97651.66;;;22.18;79.78
57086;BME280;42964;42.910;23.792;2022-07-06T11:02:14;97633.28;;;22.50;80.99
57086;BME280;42964;42.910;23.792;2022-07-06T11:07:18;97634.66;;;22.76;81.78
57086;BME280;42964;42.910;23.792;2022-07-06T11:12:18;97628.34;;;23.28;80.63
57086;BME280;42964;42.910;23.792;2022-07-06T11:17:18;97626.50;;;23.94;78.57
57086;BME280;42964;42.910;23.792;2022-07-06T11:22:17;97619.81;;;24.63;78.42
57086;BME280;42964;42.910;23.792;2022-07-06T11:27:22;97619.41;;;25.28;74.93
57086;BME280;42964;42.910;23.792;2022-07-06T11:32:26;97611.59;;;25.95;71.94
57086;BME280;42964;42.910;23.792;2022-07-06T11:37:25;97615.97;;;26.36;67.31
57086;BME280;42964;42.910;23.792;2022-07-06T11:42:24;97604.44;;;26.75;63.39
57086;BME280;42964;42.910;23.792;2022-07-06T11:47:30;97592.31;;;27.10;61.84
57086;BME280;42964;42.910;23.792;2022-07-06T11:52:30;97589.09;;;27.67;59.19
57086;BME280;42964;42.910;23.792;2022-07-06T11:57:32;97580.28;;;28.26;56.77
57086;BME280;42964;42.910;23.792;2022-07-06T12:02:31;97576.19;;;28.80;53.64
57086;BME280;42964;42.910;23.792;2022-07-06T12:07:30;97566.25;;;29.04;49.08
57086;BME280;42964;42.910;23.792;2022-07-06T12:12:29;97564.28;;;29.40;50.13
57086;BME280;42964;42.910;23.792;2022-07-06T12:17:28;97555.53;;;29.27;45.00
57086;BME280;42964;42.910;23.792;2022-07-06T12:22:27;97553.72;;;28.94;45.25
57086;BME280;42964;42.910;23.792;2022-07-06T12:27:26;97550.94;;;28.02;46.76
57086;BME280;42964;42.910;23.792;2022-07-06T12:32:25;97546.72;;;27.75;47.29
57086;BME280;42964;42.910;23.792;2022-07-06T12:37:26;97534.56;;;27.71;49.18
57086;BME280;42964;42.910;23.792;2022-07-06T12:42:25;97548.41;;;27.39;48.59
57086;BME280;42964;42.910;23.792;2022-07-06T12:47:24;97534.50;;;26.86;49.06
57086;BME280;42964;42.910;23.792;2022-07-06T12:52:28;97535.75;;;26.68;48.83
57086;BME280;42964;42.910;23.792;2022-07-06T12:57:27;97529.22;;;26.72;49.34
57086;BME280;42964;42.910;23.792;2022-07-06T13:02:29;97517.66;;;26.73;50.42
57086;BME280;42964;42.910;23.792;2022-07-06T13:07:29;97519.56;;;26.58;51.91
57086;BME280;42964;42.910;23.792;2022-07-06T13:12:34;97509.34;;;26.65;50.49
57086;BME280;42964;42.910;23.792;2022-07-06T13:17:34;97489.56;;;26.56;51.06
57086;BME280;42964;42.910;23.792;2022-07-06T13:22:33;97508.50;;;26.51;51.78
57086;BME280;42964;42.910;23.792;2022-07-06T13:27:32;97520.13;;;25.98;52.55
57086;BME280;42964;42.910;23.792;2022-07-06T13:32:31;97533.47;;;25.15;57.74
57086;BME280;42964;42.910;23.792;2022-07-06T13:37:31;97545.00;;;23.35;68.58
57086;BME280;42964;42.910;23.792;2022-07-06T13:42:31;97548.41;;;21.50;81.19
57086;BME280;42964;42.910;23.792;2022-07-06T13:47:30;97550.91;;;20.97;85.12
57086;BME280;42964;42.910;23.792;2022-07-06T13:52:29;97545.69;;;20.95;89.23
57086;BME280;42964;42.910;23.792;2022-07-06T13:57:28;97553.03;;;21.07;91.46
57086;BME280;42964;42.910;23.792;2022-07-06T14:02:28;97541.84;;;21.40;93.71
57086;BME280;42964;42.910;23.792;2022-07-06T14:07:27;97544.47;;;21.76;93.42
57086;BME280;42964;42.910;23.792;2022-07-06T14:12:25;97549.72;;;22.13;93.41
57086;BME280;42964;42.910;23.792;2022-07-06T14:17:26;97554.44;;;22.41;93.97
57086;BME280;42964;42.910;23.792;2022-07-06T14:22:25;97552.13;;;22.68;93.96
57086;BME280;42964;42.910;23.792;2022-07-06T14:27:24;97558.63;;;22.96;94.81
57086;BME280;42964;42.910;23.792;2022-07-06T14:32:22;97553.53;;;23.25;94.27
57086;BME280;42964;42.910;23.792;2022-07-06T14:37:21;97534.97;;;23.72;92.39
57086;BME280;42964;42.910;23.792;2022-07-06T14:42:20;97533.84;;;24.37;87.75
57086;BME280;42964;42.910;23.792;2022-07-06T14:47:19;97518.84;;;24.95;84.82
57086;BME280;42964;42.910;23.792;2022-07-06T14:52:18;97513.78;;;25.46;81.99
57086;BME280;42964;42.910;23.792;2022-07-06T14:57:17;97511.03;;;25.74;78.16
57086;BME280;42964;42.910;23.792;2022-07-06T15:02:16;97505.28;;;25.81;76.12
57086;BME280;42964;42.910;23.792;2022-07-06T15:07:16;97503.53;;;25.94;73.98
57086;BME280;42964;42.910;23.792;2022-07-06T15:12:15;97506.09;;;25.95;72.55
57086;BME280;42964;42.910;23.792;2022-07-06T15:17:14;97498.88;;;25.98;72.74
57086;BME280;42964;42.910;23.792;2022-07-06T15:22:13;97499.88;;;26.35;71.92
57086;BME280;42964;42.910;23.792;2022-07-06T15:27:12;97487.63;;;26.45;71.60
57086;BME280;42964;42.910;23.792;2022-07-06T15:32:11;97485.28;;;26.66;69.55
57086;BME280;42964;42.910;23.792;2022-07-06T15:37:10;97492.09;;;26.83;66.60
57086;BME280;42964;42.910;23.792;2022-07-06T15:42:09;97486.31;;;26.76;63.92
57086;BME280;42964;42.910;23.792;2022-07-06T15:47:08;97488.38;;;26.73;62.64
57086;BME280;42964;42.910;23.792;2022-07-06T15:52:07;97492.19;;;26.69;63.72
57086;BME280;42964;42.910;23.792;2022-07-06T15:57:06;97498.78;;;26.76;63.46
57086;BME280;42964;42.910;23.792;2022-07-06T16:02:05;97502.28;;;26.76;61.74
57086;BME280;42964;42.910;23.792;2022-07-06T16:07:04;97506.66;;;26.65;62.75
57086;BME280;42964;42.910;23.792;2022-07-06T16:12:04;97495.50;;;26.60;61.40
57086;BME280;42964;42.910;23.792;2022-07-06T16:17:03;97494.34;;;26.64;61.08
57086;BME280;42964;42.910;23.792;2022-07-06T16:22:02;97485.72;;;26.47;61.18
57086;BME280;42964;42.910;23.792;2022-07-06T16:27:01;97498.69;;;26.39;61.46
57086;BME280;42964;42.910;23.792;2022-07-06T16:32:00;97508.19;;;26.30;63.84
57086;BME280;42964;42.910;23.792;2022-07-06T16:36:59;97516.47;;;26.26;65.68
57086;BME280;42964;42.910;23.792;2022-07-06T16:41:58;97515.16;;;26.19;64.98
57086;BME280;42964;42.910;23.792;2022-07-06T16:46:57;97511.00;;;26.14;64.75
57086;BME280;42964;42.910;23.792;2022-07-06T16:51:56;97511.09;;;26.00;64.79
57086;BME280;42964;42.910;23.792;2022-07-06T16:56:55;97511.78;;;25.77;66.02
57086;BME280;42964;42.910;23.792;2022-07-06T17:01:55;97493.13;;;25.37;66.53
57086;BME280;42964;42.910;23.792;2022-07-06T17:06:54;97517.72;;;25.26;65.76
57086;BME280;42964;42.910;23.792;2022-07-06T17:11:53;97516.50;;;25.17;66.85
57086;BME280;42964;42.910;23.792;2022-07-06T17:16:52;97523.81;;;25.14;68.75
57086;BME280;42964;42.910;23.792;2022-07-06T17:21:53;97512.34;;;25.13;70.14
57086;BME280;42964;42.910;23.792;2022-07-06T17:26:52;97523.09;;;24.97;71.41
57086;BME280;42964;42.910;23.792;2022-07-06T17:31:51;97520.72;;;24.78;71.11
57086;BME280;42964;42.910;23.792;2022-07-06T17:36:50;97523.81;;;24.56;70.69
57086;BME280;42964;42.910;23.792;2022-07-06T17:41:49;97532.78;;;24.25;71.76
57086;BME280;42964;42.910;23.792;2022-07-06T17:46:48;97527.41;;;23.96;72.72
57086;BME280;42964;42.910;23.792;2022-07-06T17:51:47;97536.00;;;23.70;73.16
57086;BME280;42964;42.910;23.792;2022-07-06T17:56:46;97537.91;;;23.36;74.19
57086;BME280;42964;42.910;23.792;2022-07-06T18:01:45;97541.03;;;22.95;75.94
57086;BME280;42964;42.910;23.792;2022-07-06T18:06:44;97540.09;;;22.63;77.06
57086;BME280;42964;42.910;23.792;2022-07-06T18:11:43;97537.19;;;22.34;78.04
57086;BME280;42964;42.910;23.792;2022-07-06T18:16:41;97549.66;;;22.14;79.15
57086;BME280;42964;42.910;23.792;2022-07-06T18:21:41;97550.88;;;21.90;79.66
57086;BME280;42964;42.910;23.792;2022-07-06T18:26:43;97558.06;;;21.69;80.29
57086;BME280;42964;42.910;23.792;2022-07-06T18:31:42;97556.22;;;21.52;80.85
57086;BME280;42964;42.910;23.792;2022-07-06T18:36:41;97561.31;;;21.38;81.33
57086;BME280;42964;42.910;23.792;2022-07-06T18:41:40;97572.53;;;21.24;82.08
57086;BME280;42964;42.910;23.792;2022-07-06T18:46:40;97583.47;;;21.14;82.49
57086;BME280;42964;42.910;23.792;2022-07-06T18:51:39;97593.81;;;21.00;83.32
57086;BME280;42964;42.910;23.792;2022-07-06T18:56:40;97595.72;;;20.78;84.10
57086;BME280;42964;42.910;23.792;2022-07-06T19:01:39;97606.78;;;20.65;84.66
57086;BME280;42964;42.910;23.792;2022-07-06T19:06:38;97605.50;;;20.55;84.83
57086;BME280;42964;42.910;23.792;2022-07-06T19:11:37;97602.72;;;20.38;85.22
57086;BME280;42964;42.910;23.792;2022-07-06T19:16:38;97598.22;;;20.19;85.44
57086;BME280;42964;42.910;23.792;2022-07-06T19:21:37;97594.78;;;20.17;85.49
57086;BME280;42964;42.910;23.792;2022-07-06T19:26:36;97606.38;;;20.13;85.43
57086;BME280;42964;42.910;23.792;2022-07-06T19:31:36;97606.94;;;19.99;85.66
57086;BME280;42964;42.910;23.792;2022-07-06T19:36:36;97606.28;;;19.94;85.50
57086;BME280;42964;42.910;23.792;2022-07-06T19:41:40;97599.50;;;19.89;85.44
57086;BME280;42964;42.910;23.792;2022-07-06T19:46:39;97594.34;;;19.85;85.55
57086;BME280;42964;42.910;23.792;2022-07-06T19:51:38;97599.75;;;19.82;85.77
57086;BME280;42964;42.910;23.792;2022-07-06T19:56:37;97597.28;;;19.78;86.04
57086;BME280;42964;42.910;23.792;2022-07-06T20:01:36;97605.38;;;19.73;86.33
57086;BME280;42964;42.910;23.792;2022-07-06T20:06:36;97603.06;;;19.65;86.40
57086;BME280;42964;42.910;23.792;2022-07-06T20:11:35;97605.88;;;19.61;86.50
57086;BME280;42964;42.910;23.792;2022-07-06T20:16:34;97599.88;;;19.57;86.29
57086;BME280;42964;42.910;23.792;2022-07-06T20:21:33;97591.41;;;19.49;86.42
57086;BME280;42964;42.910;23.792;2022-07-06T20:26:32;97578.69;;;19.37;86.57
57086;BME280;42964;42.910;23.792;2022-07-06T20:31:31;97574.00;;;19.23;86.84
57086;BME280;42964;42.910;23.792;2022-07-06T20:36:30;97597.50;;;19.28;87.15
57086;BME280;42964;42.910;23.792;2022-07-06T20:41:29;97597.72;;;19.21;87.53
57086;BME280;42964;42.910;23.792;2022-07-06T20:46:28;97604.09;;;19.16;87.52
57086;BME280;42964;42.910;23.792;2022-07-06T20:51:27;97600.84;;;19.09;87.93
57086;BME280;42964;42.910;23.792;2022-07-06T20:56:26;97601.91;;;19.03;88.26
57086;BME280;42964;42.910;23.792;2022-07-06T21:01:25;97608.31;;;18.96;88.54
57086;BME280;42964;42.910;23.792;2022-07-06T21:06:24;97613.81;;;18.90;89.01
57086;BME280;42964;42.910;23.792;2022-07-06T21:11:23;97615.91;;;18.80;89.35
57086;BME280;42964;42.910;23.792;2022-07-06T21:16:22;97611.72;;;18.75;89.70
57086;BME280;42964;42.910;23.792;2022-07-06T21:21:21;97606.59;;;18.72;89.87
57086;BME280;42964;42.910;23.792;2022-07-06T21:26:20;97612.84;;;18.68;89.99
57086;BME280;42964;42.910;23.792;2022-07-06T21:31:19;97614.78;;;18.63;90.14
57086;BME280;42964;42.910;23.792;2022-07-06T21:36:18;97609.72;;;18.56;90.20
57086;BME280;42964;42.910;23.792;2022-07-06T21:41:17;97611.66;;;18.51;90.35
57086;BME280;42964;42.910;23.792;2022-07-06T21:46:16;97610.03;;;18.47;90.29
57086;BME280;42964;42.910;23.792;2022-07-06T21:51:17;97611.97;;;18.42;91.09
57086;BME280;42964;42.910;23.792;2022-07-06T21:56:16;97597.06;;;18.43;91.34
57086;BME280;42964;42.910;23.792;2022-07-06T22:01:15;97604.91;;;18.44;91.36
57086;BME280;42964;42.910;23.792;2022-07-06T22:06:14;97603.28;;;18.40;91.63
57086;BME280;42964;42.910;23.792;2022-07-06T22:11:13;97604.13;;;18.40;91.94
57086;BME280;42964;42.910;23.792;2022-07-06T22:16:15;97613.00;;;18.38;91.74
57086;BME280;42964;42.910;23.792;2022-07-06T22:21:15;97613.00;;;18.38;91.96
57086;BME280;42964;42.910;23.792;2022-07-06T22:26:14;97607.81;;;18.36;92.27
57086;BME280;42964;42.910;23.792;2022-07-06T22:31:14;97601.91;;;18.30;92.78
57086;BME280;42964;42.910;23.792;2022-07-06T22:36:13;97610.78;;;18.26;93.25
57086;BME280;42964;42.910;23.792;2022-07-06T22:41:20;97611.59;;;18.28;93.71
57086;BME280;42964;42.910;23.792;2022-07-06T22:46:20;97610.13;;;18.19;94.00
57086;BME280;42964;42.910;23.792;2022-07-06T22:51:19;97599.94;;;18.10;94.16
57086;BME280;42964;42.910;23.792;2022-07-06T22:56:18;97583.66;;;18.00;94.15
57086;BME280;42964;42.910;23.792;2022-07-06T23:01:18;97599.91;;;18.11;94.22
57086;BME280;42964;42.910;23.792;2022-07-06T23:06:19;97602.53;;;18.11;94.03
57086;BME280;42964;42.910;23.792;2022-07-06T23:11:19;97608.63;;;18.12;94.02
57086;BME280;42964;42.910;23.792;2022-07-06T23:16:19;97587.88;;;18.04;94.11
57086;BME280;42964;42.910;23.792;2022-07-06T23:21:18;97591.25;;;18.08;94.07
57086;BME280;42964;42.910;23.792;2022-07-06T23:26:17;97593.94;;;18.06;94.15
57086;BME280;42964;42.910;23.792;2022-07-06T23:31:16;97590.63;;;18.01;94.16
57086;BME280;42964;42.910;23.792;2022-07-06T23:36:14;97575.38;;;17.86;94.17
57086;BME280;42964;42.910;23.792;2022-07-06T23:41:13;97599.03;;;17.84;95.01
57086;BME280;42964;42.910;23.792;2022-07-06T23:46:14;97599.19;;;17.51;96.50
57086;BME280;42964;42.910;23.792;2022-07-06T23:51:13;97595.38;;;17.33;96.77
57086;BME280;42964;42.910;23.792;2022-07-06T23:56:12;97595.41;;;17.32;96.68
